Date,TemperatureHighF,TemperatureAvgF,TemperatureLowF,DewpointHighF,DewpointAvgF,DewpointLowF,HumidityHigh,HumidityAvg,HumidityLow,PressureMaxIn,PressureMinIn,WindSpeedMaxMPH,WindSpeedAvgMPH,GustSpeedMaxMPH,PrecipitationSumIn
2013-1-1,56.7,45.8,36.0,43.1,38.0,33.9,98,76,46,30.19,30.06,11,0,11,0.00
2013-1-2,63.4,50.5,39.9,44.5,35.2,29.2,79,57,30,30.12,30.01,12,1,12,0.00
2013-1-3,63.1,44.9,34.4,48.9,38.5,30.8,100,80,35,30.14,30.03,5,0,5,0.00
2013-1-4,60.7,44.9,35.3,47.7,40.3,35.3,100,87,45,30.19,30.11,6,0,6,0.00
2013-1-5,55.7,45.8,35.3,52.3,44.5,35.3,100,95,77,30.23,30.07,7,0,7,0.39
2013-1-6,55.0,48.2,43.5,49.4,45.6,40.0,100,91,77,30.09,30.00,10,0,10,0.26
2013-1-7,55.6,46.2,37.0,49.6,43.4,37.0,100,91,69,30.17,30.05,7,0,7,0.00
2013-1-8,61.8,49.6,39.8,53.8,46.4,39.6,100,89,64,30.09,30.00,6,0,6,0.00
2013-1-9,57.5,49.3,41.9,53.0,46.5,39.5,98,90,69,30.04,29.95,13,0,13,0.00
2013-1-10,51.9,44.1,36.0,41.9,37.0,30.7,96,77,61,30.11,29.98,15,1,15,0.00
2013-1-11,53.3,40.9,28.8,43.0,35.9,28.3,100,84,50,30.18,30.05,11,0,11,0.00
2013-1-12,51.9,42.6,35.3,39.6,35.6,29.5,96,77,54,30.16,30.05,7,0,7,0.00
2013-1-13,51.9,41.5,33.7,37.3,30.1,23.9,89,65,36,30.16,30.05,6,0,6,0.00
2013-1-14,52.8,40.5,31.8,34.6,27.5,23.4,82,61,34,30.32,30.13,11,1,11,0.00
2013-1-15,49.5,38.8,32.2,40.7,32.7,24.9,98,79,54,30.35,30.32,5,0,5,0.00
2013-1-16,61.2,43.3,31.0,45.3,36.9,31.0,100,81,38,30.33,30.11,6,0,6,0.00
2013-1-17,70.3,47.4,35.9,52.9,38.3,33.0,91,73,31,30.13,30.02,5,0,5,0.00
2013-1-18,72.8,51.9,36.2,49.7,37.2,29.6,96,61,26,30.09,30.01,5,0,5,0.00
2013-1-19,74.2,56.2,47.3,43.5,34.3,26.7,69,45,19,30.11,30.03,9,1,10,0.00
2013-1-20,73.3,58.7,50.5,47.0,32.4,26.5,60,38,20,30.08,29.98,13,1,13,0.00
2013-1-21,72.0,60.5,48.8,47.2,33.0,22.1,63,37,22,30.05,29.95,12,1,12,0.00
2013-1-22,76.0,55.1,41.6,40.7,33.3,23.3,73,46,20,30.00,29.95,5,0,5,0.00
2013-1-23,68.9,53.2,46.1,50.9,42.3,32.1,94,68,31,30.01,29.89,8,0,8,0.00
2013-1-24,62.7,56.0,51.3,60.7,55.2,48.5,100,97,81,30.08,29.95,11,0,11,0.57
2013-1-25,69.1,58.9,53.1,58.7,55.5,52.0,100,89,64,30.07,29.93,10,0,10,0.02
2013-1-26,59.3,52.0,46.8,58.7,50.1,45.8,100,93,79,29.97,29.89,12,0,12,0.01
2013-1-27,56.2,47.2,38.3,46.0,41.9,35.2,98,82,61,30.08,29.97,13,0,13,0.00
2013-1-28,55.9,44.7,32.7,47.9,40.8,32.5,100,87,60,30.20,30.07,11,1,11,0.00
2013-1-29,55.3,45.4,35.5,47.3,42.2,35.5,100,89,72,30.24,30.15,7,0,7,0.00
2013-1-30,68.8,50.2,40.5,51.3,43.9,38.7,100,81,46,30.27,30.17,7,0,9,0.00
2013-1-31,63.7,48.5,36.8,53.0,43.6,36.6,100,85,53,30.19,30.08,5,0,5,0.00